sensor_id;sensor_type;location;lat;lon;timestamp;P1;durP1;ratioP1;P2;durP2;ratioP2
13048;SDS011;6591;51.446;5.404;2024-03-23T00:54:43;8.93;;;3.60;;
13048;SDS011;6591;51.446;5.404;2024-03-23T00:57:09;7.57;;;3.40;;
13048;SDS011;6591;51.446;5.404;2024-03-23T00:59:35;6.47;;;3.50;;
13048;SDS011;6591;51.446;5.404;2024-03-23T01:02:01;8.53;;;3.43;;
13048;SDS011;6591;51.446;5.404;2024-03-23T01:04:27;7.53;;;3.60;;
13048;SDS011;6591;51.446;5.404;2024-03-23T01:06:53;6.87;;;3.40;;
13048;SDS011;6591;51.446;5.404;2024-03-23T01:09:19;7.00;;;3.73;;
13048;SDS011;6591;51.446;5.404;2024-03-23T01:11:45;9.03;;;3.67;;
13048;SDS011;6591;51.446;5.404;2024-03-23T01:14:11;7.13;;;3.10;;
13048;SDS011;6591;51.446;5.404;2024-03-23T01:16:37;7.43;;;3.23;;
13048;SDS011;6591;51.446;5.404;2024-03-23T01:19:03;7.13;;;3.33;;
13048;SDS011;6591;51.446;5.404;2024-03-23T01:21:29;6.93;;;3.63;;
13048;SDS011;6591;51.446;5.404;2024-03-23T01:23:55;6.83;;;3.70;;
13048;SDS011;6591;51.446;5.404;2024-03-23T01:26:21;9.87;;;3.87;;
13048;SDS011;6591;51.446;5.404;2024-03-23T01:28:47;9.20;;;3.80;;
13048;SDS011;6591;51.446;5.404;2024-03-23T01:31:13;7.80;;;3.70;;
13048;SDS011;6591;51.446;5.404;2024-03-23T01:33:41;9.60;;;4.30;;
13048;SDS011;6591;51.446;5.404;2024-03-23T01:36:07;11.10;;;4.03;;
13048;SDS011;6591;51.446;5.404;2024-03-23T01:38:33;5.73;;;3.67;;
13048;SDS011;6591;51.446;5.404;2024-03-23T01:41:00;7.13;;;4.00;;
13048;SDS011;6591;51.446;5.404;2024-03-23T01:43:25;7.20;;;4.00;;
13048;SDS011;6591;51.446;5.404;2024-03-23T01:45:52;8.17;;;4.17;;
13048;SDS011;6591;51.446;5.404;2024-03-23T01:48:19;7.37;;;3.43;;
13048;SDS011;6591;51.446;5.404;2024-03-23T01:50:49;12.73;;;4.57;;
13048;SDS011;6591;51.446;5.404;2024-03-23T01:53:15;10.47;;;4.30;;
13048;SDS011;6591;51.446;5.404;2024-03-23T01:55:47;8.20;;;3.30;;
13048;SDS011;6591;51.446;5.404;2024-03-23T01:58:13;6.30;;;3.40;;
13048;SDS011;6591;51.446;5.404;2024-03-23T02:00:39;9.13;;;4.10;;
13048;SDS011;6591;51.446;5.404;2024-03-23T02:05:55;7.30;;;3.27;;
13048;SDS011;6591;51.446;5.404;2024-03-23T02:08:44;8.03;;;3.77;;
13048;SDS011;6591;51.446;5.404;2024-03-23T02:11:10;8.10;;;4.17;;
13048;SDS011;6591;51.446;5.404;2024-03-23T02:13:36;8.00;;;4.33;;
13048;SDS011;6591;51.446;5.404;2024-03-23T02:16:03;10.70;;;4.03;;
13048;SDS011;6591;51.446;5.404;2024-03-23T02:18:31;8.30;;;3.77;;
13048;SDS011;6591;51.446;5.404;2024-03-23T02:20:58;8.07;;;4.50;;
13048;SDS011;6591;51.446;5.404;2024-03-23T02:23:25;9.77;;;4.03;;
13048;SDS011;6591;51.446;5.404;2024-03-23T02:25:51;8.17;;;3.90;;
13048;SDS011;6591;51.446;5.404;2024-03-23T02:28:22;7.27;;;3.30;;
13048;SDS011;6591;51.446;5.404;2024-03-23T02:30:48;9.57;;;4.27;;
13048;SDS011;6591;51.446;5.404;2024-03-23T02:33:15;7.87;;;3.63;;
13048;SDS011;6591;51.446;5.404;2024-03-23T02:35:43;5.83;;;3.40;;
13048;SDS011;6591;51.446;5.404;2024-03-23T02:38:10;8.40;;;3.07;;
13048;SDS011;6591;51.446;5.404;2024-03-23T02:40:36;8.10;;;3.40;;
13048;SDS011;6591;51.446;5.404;2024-03-23T02:43:03;6.57;;;3.03;;
13048;SDS011;6591;51.446;5.404;2024-03-23T02:45:30;7.77;;;3.20;;
13048;SDS011;6591;51.446;5.404;2024-03-23T02:47:56;7.40;;;3.00;;
13048;SDS011;6591;51.446;5.404;2024-03-23T02:50:22;7.43;;;3.60;;
13048;SDS011;6591;51.446;5.404;2024-03-23T02:52:48;8.10;;;3.30;;
13048;SDS011;6591;51.446;5.404;2024-03-23T02:55:15;7.40;;;3.40;;
13048;SDS011;6591;51.446;5.404;2024-03-23T02:57:41;7.27;;;3.27;;
13048;SDS011;6591;51.446;5.404;2024-03-23T03:00:08;10.03;;;3.50;;
13048;SDS011;6591;51.446;5.404;2024-03-23T03:02:36;7.23;;;3.00;;
13048;SDS011;6591;51.446;5.404;2024-03-23T03:05:03;8.87;;;3.17;;
13048;SDS011;6591;51.446;5.404;2024-03-23T03:07:31;11.50;;;3.50;;
13048;SDS011;6591;51.446;5.404;2024-03-23T03:09:58;7.77;;;3.17;;
13048;SDS011;6591;51.446;5.404;2024-03-23T03:12:24;5.90;;;3.17;;
13048;SDS011;6591;51.446;5.404;2024-03-23T03:14:50;7.90;;;3.13;;
13048;SDS011;6591;51.446;5.404;2024-03-23T03:17:16;6.73;;;3.20;;
13048;SDS011;6591;51.446;5.404;2024-03-23T03:19:43;7.07;;;3.00;;
13048;SDS011;6591;51.446;5.404;2024-03-23T03:22:09;6.87;;;3.20;;
13048;SDS011;6591;51.446;5.404;2024-03-23T03:24:35;8.90;;;3.17;;
13048;SDS011;6591;51.446;5.404;2024-03-23T03:27:01;6.53;;;3.37;;
13048;SDS011;6591;51.446;5.404;2024-03-23T03:29:28;7.87;;;3.03;;
13048;SDS011;6591;51.446;5.404;2024-03-23T03:32:01;6.47;;;3.03;;
13048;SDS011;6591;51.446;5.404;2024-03-23T03:34:29;7.53;;;3.00;;
13048;SDS011;6591;51.446;5.404;2024-03-23T03:36:56;6.20;;;2.80;;
13048;SDS011;6591;51.446;5.404;2024-03-23T03:39:23;5.90;;;3.10;;
13048;SDS011;6591;51.446;5.404;2024-03-23T03:41:50;6.30;;;3.10;;
13048;SDS011;6591;51.446;5.404;2024-03-23T03:44:16;6.87;;;3.03;;
13048;SDS011;6591;51.446;5.404;2024-03-23T03:46:42;8.27;;;3.00;;
13048;SDS011;6591;51.446;5.404;2024-03-23T03:49:09;5.97;;;3.13;;
13048;SDS011;6591;51.446;5.404;2024-03-23T03:51:36;5.47;;;3.20;;
13048;SDS011;6591;51.446;5.404;2024-03-23T03:54:02;5.57;;;2.80;;
13048;SDS011;6591;51.446;5.404;2024-03-23T03:56:28;10.73;;;3.63;;
13048;SDS011;6591;51.446;5.404;2024-03-23T03:58:54;5.47;;;2.70;;
13048;SDS011;6591;51.446;5.404;2024-03-23T04:01:20;5.70;;;2.83;;
13048;SDS011;6591;51.446;5.404;2024-03-23T04:03:47;5.00;;;3.23;;
13048;SDS011;6591;51.446;5.404;2024-03-23T04:06:22;7.30;;;3.27;;
13048;SDS011;6591;51.446;5.404;2024-03-23T04:08:49;6.03;;;3.17;;
13048;SDS011;6591;51.446;5.404;2024-03-23T04:11:15;4.97;;;2.80;;
13048;SDS011;6591;51.446;5.404;2024-03-23T04:13:41;8.03;;;3.60;;
13048;SDS011;6591;51.446;5.404;2024-03-23T04:16:08;7.80;;;3.40;;
13048;SDS011;6591;51.446;5.404;2024-03-23T04:18:34;6.97;;;3.17;;
13048;SDS011;6591;51.446;5.404;2024-03-23T04:21:01;4.83;;;3.17;;
13048;SDS011;6591;51.446;5.404;2024-03-23T04:23:28;7.47;;;3.63;;
13048;SDS011;6591;51.446;5.404;2024-03-23T04:25:54;7.80;;;3.37;;
13048;SDS011;6591;51.446;5.404;2024-03-23T04:28:20;9.37;;;3.53;;
13048;SDS011;6591;51.446;5.404;2024-03-23T04:30:47;7.43;;;3.80;;
13048;SDS011;6591;51.446;5.404;2024-03-23T04:33:14;9.87;;;4.23;;
13048;SDS011;6591;51.446;5.404;2024-03-23T04:35:40;6.67;;;4.00;;
13048;SDS011;6591;51.446;5.404;2024-03-23T04:38:12;10.13;;;4.63;;
13048;SDS011;6591;51.446;5.404;2024-03-23T04:40:38;10.13;;;4.27;;
13048;SDS011;6591;51.446;5.404;2024-03-23T04:43:04;7.30;;;4.17;;
13048;SDS011;6591;51.446;5.404;2024-03-23T04:45:31;6.50;;;4.47;;
13048;SDS011;6591;51.446;5.404;2024-03-23T04:47:57;8.30;;;5.30;;
13048;SDS011;6591;51.446;5.404;2024-03-23T04:50:24;9.87;;;6.00;;
13048;SDS011;6591;51.446;5.404;2024-03-23T04:52:50;9.50;;;5.43;;
13048;SDS011;6591;51.446;5.404;2024-03-23T04:55:16;9.30;;;5.90;;
13048;SDS011;6591;51.446;5.404;2024-03-23T04:57:42;11.07;;;5.90;;
13048;SDS011;6591;51.446;5.404;2024-03-23T05:00:09;10.63;;;6.00;;
13048;SDS011;6591;51.446;5.404;2024-03-23T05:02:43;12.93;;;6.47;;
13048;SDS011;6591;51.446;5.404;2024-03-23T05:05:10;8.53;;;6.00;;
13048;SDS011;6591;51.446;5.404;2024-03-23T05:07:37;9.63;;;6.73;;
13048;SDS011;6591;51.446;5.404;2024-03-23T05:10:03;11.10;;;6.70;;
13048;SDS011;6591;51.446;5.404;2024-03-23T05:12:30;8.87;;;6.53;;
13048;SDS011;6591;51.446;5.404;2024-03-23T05:14:57;12.90;;;7.00;;
13048;SDS011;6591;51.446;5.404;2024-03-23T05:17:23;13.07;;;6.80;;
13048;SDS011;6591;51.446;5.404;2024-03-23T05:19:49;12.53;;;7.33;;
13048;SDS011;6591;51.446;5.404;2024-03-23T05:22:15;13.77;;;7.43;;
13048;SDS011;6591;51.446;5.404;2024-03-23T05:24:41;12.73;;;7.33;;
13048;SDS011;6591;51.446;5.404;2024-03-23T05:27:10;15.33;;;8.07;;
13048;SDS011;6591;51.446;5.404;2024-03-23T05:29:36;11.80;;;7.43;;
13048;SDS011;6591;51.446;5.404;2024-03-23T05:32:02;14.80;;;7.30;;
13048;SDS011;6591;51.446;5.404;2024-03-23T05:34:29;13.90;;;7.63;;
13048;SDS011;6591;51.446;5.404;2024-03-23T05:36:55;13.83;;;7.33;;
13048;SDS011;6591;51.446;5.404;2024-03-23T05:39:21;13.13;;;7.57;;
13048;SDS011;6591;51.446;5.404;2024-03-23T05:41:48;14.87;;;7.27;;
13048;SDS011;6591;51.446;5.404;2024-03-23T05:44:14;13.40;;;7.47;;
13048;SDS011;6591;51.446;5.404;2024-03-23T05:46:40;15.43;;;7.33;;
13048;SDS011;6591;51.446;5.404;2024-03-23T05:49:14;11.87;;;7.33;;
13048;SDS011;6591;51.446;5.404;2024-03-23T05:51:42;15.20;;;7.50;;
13048;SDS011;6591;51.446;5.404;2024-03-23T05:54:08;14.67;;;7.33;;
13048;SDS011;6591;51.446;5.404;2024-03-23T05:56:35;13.63;;;6.60;;
13048;SDS011;6591;51.446;5.404;2024-03-23T05:59:01;13.17;;;6.90;;
13048;SDS011;6591;51.446;5.404;2024-03-23T06:01:28;12.03;;;6.40;;
13048;SDS011;6591;51.446;5.404;2024-03-23T06:03:57;12.60;;;6.40;;
13048;SDS011;6591;51.446;5.404;2024-03-23T06:06:24;13.73;;;6.70;;
13048;SDS011;6591;51.446;5.404;2024-03-23T06:08:50;12.70;;;6.00;;
13048;SDS011;6591;51.446;5.404;2024-03-23T06:11:16;14.50;;;6.10;;
13048;SDS011;6591;51.446;5.404;2024-03-23T06:13:42;15.13;;;6.67;;
13048;SDS011;6591;51.446;5.404;2024-03-23T06:16:08;13.00;;;6.00;;
13048;SDS011;6591;51.446;5.404;2024-03-23T06:18:35;12.30;;;6.37;;
13048;SDS011;6591;51.446;5.404;2024-03-23T06:21:01;16.20;;;7.37;;
13048;SDS011;6591;51.446;5.404;2024-03-23T06:23:28;14.77;;;7.07;;
13048;SDS011;6591;51.446;5.404;2024-03-23T06:25:54;12.07;;;6.80;;
13048;SDS011;6591;51.446;5.404;2024-03-23T06:28:20;12.20;;;6.43;;
13048;SDS011;6591;51.446;5.404;2024-03-23T06:30:46;12.90;;;6.03;;
13048;SDS011;6591;51.446;5.404;2024-03-23T06:33:12;11.50;;;6.50;;
13048;SDS011;6591;51.446;5.404;2024-03-23T06:35:39;11.00;;;5.83;;
13048;SDS011;6591;51.446;5.404;2024-03-23T06:38:05;13.17;;;6.50;;
13048;SDS011;6591;51.446;5.404;2024-03-23T06:40:31;9.33;;;5.77;;
13048;SDS011;6591;51.446;5.404;2024-03-23T06:42:57;11.90;;;6.17;;
13048;SDS011;6591;51.446;5.404;2024-03-23T06:45:23;10.40;;;5.40;;
13048;SDS011;6591;51.446;5.404;2024-03-23T06:47:50;13.77;;;6.07;;
13048;SDS011;6591;51.446;5.404;2024-03-23T06:50:16;11.70;;;5.80;;
13048;SDS011;6591;51.446;5.404;2024-03-23T06:52:42;11.13;;;4.80;;
13048;SDS011;6591;51.446;5.404;2024-03-23T06:55:09;10.17;;;5.40;;
13048;SDS011;6591;51.446;5.404;2024-03-23T06:57:35;12.63;;;6.00;;
13048;SDS011;6591;51.446;5.404;2024-03-23T07:00:01;11.10;;;6.00;;
13048;SDS011;6591;51.446;5.404;2024-03-23T07:02:28;10.57;;;5.23;;
13048;SDS011;6591;51.446;5.404;2024-03-23T07:04:55;9.23;;;6.27;;
13048;SDS011;6591;51.446;5.404;2024-03-23T07:07:21;12.40;;;5.73;;
13048;SDS011;6591;51.446;5.404;2024-03-23T07:09:48;11.50;;;5.40;;
13048;SDS011;6591;51.446;5.404;2024-03-23T07:12:18;10.40;;;5.77;;
13048;SDS011;6591;51.446;5.404;2024-03-23T07:14:44;12.40;;;5.17;;
13048;SDS011;6591;51.446;5.404;2024-03-23T07:17:20;8.40;;;5.43;;
13048;SDS011;6591;51.446;5.404;2024-03-23T07:20:19;15.43;;;5.60;;
13048;SDS011;6591;51.446;5.404;2024-03-23T07:22:45;18.27;;;5.33;;
13048;SDS011;6591;51.446;5.404;2024-03-23T07:25:12;13.37;;;5.10;;
13048;SDS011;6591;51.446;5.404;2024-03-23T07:27:39;10.23;;;5.30;;
13048;SDS011;6591;51.446;5.404;2024-03-23T07:30:06;8.57;;;4.50;;
13048;SDS011;6591;51.446;5.404;2024-03-23T07:32:34;8.30;;;4.60;;
13048;SDS011;6591;51.446;5.404;2024-03-23T07:35:01;14.67;;;5.37;;
13048;SDS011;6591;51.446;5.404;2024-03-23T07:37:28;21.03;;;5.70;;
13048;SDS011;6591;51.446;5.404;2024-03-23T07:39:55;13.40;;;5.70;;
13048;SDS011;6591;51.446;5.404;2024-03-23T07:42:21;10.70;;;5.17;;
13048;SDS011;6591;51.446;5.404;2024-03-23T07:44:47;10.57;;;4.83;;
13048;SDS011;6591;51.446;5.404;2024-03-23T07:47:14;12.83;;;5.47;;
13048;SDS011;6591;51.446;5.404;2024-03-23T07:49:44;10.10;;;4.53;;
13048;SDS011;6591;51.446;5.404;2024-03-23T07:52:10;12.17;;;4.50;;
13048;SDS011;6591;51.446;5.404;2024-03-23T07:54:36;11.87;;;4.90;;
13048;SDS011;6591;51.446;5.404;2024-03-23T07:57:02;10.03;;;4.60;;
13048;SDS011;6591;51.446;5.404;2024-03-23T07:59:28;7.00;;;3.40;;
13048;SDS011;6591;51.446;5.404;2024-03-23T08:01:57;10.20;;;4.13;;
13048;SDS011;6591;51.446;5.404;2024-03-23T08:04:23;11.80;;;4.00;;
13048;SDS011;6591;51.446;5.404;2024-03-23T08:06:49;9.50;;;4.00;;
13048;SDS011;6591;51.446;5.404;2024-03-23T08:09:15;17.07;;;3.80;;
13048;SDS011;6591;51.446;5.404;2024-03-23T08:11:42;8.20;;;3.53;;
13048;SDS011;6591;51.446;5.404;2024-03-23T08:14:12;10.07;;;4.10;;
13048;SDS011;6591;51.446;5.404;2024-03-23T08:16:38;10.00;;;3.47;;
13048;SDS011;6591;51.446;5.404;2024-03-23T08:19:04;8.07;;;3.33;;
13048;SDS011;6591;51.446;5.404;2024-03-23T08:21:30;11.17;;;3.67;;
13048;SDS011;6591;51.446;5.404;2024-03-23T08:23:56;14.03;;;3.67;;
13048;SDS011;6591;51.446;5.404;2024-03-23T08:26:23;11.57;;;3.37;;
13048;SDS011;6591;51.446;5.404;2024-03-23T08:28:49;5.80;;;3.23;;
13048;SDS011;6591;51.446;5.404;2024-03-23T08:31:15;12.00;;;3.70;;
13048;SDS011;6591;51.446;5.404;2024-03-23T08:33:41;11.13;;;2.97;;
13048;SDS011;6591;51.446;5.404;2024-03-23T08:36:10;11.37;;;3.10;;
13048;SDS011;6591;51.446;5.404;2024-03-23T08:38:45;8.07;;;2.57;;
13048;SDS011;6591;51.446;5.404;2024-03-23T08:41:11;9.20;;;2.90;;
13048;SDS011;6591;51.446;5.404;2024-03-23T08:43:41;7.83;;;2.73;;
13048;SDS011;6591;51.446;5.404;2024-03-23T08:46:13;12.87;;;3.23;;
13048;SDS011;6591;51.446;5.404;2024-03-23T08:48:43;10.23;;;3.20;;
13048;SDS011;6591;51.446;5.404;2024-03-23T08:51:12;8.63;;;2.73;;
13048;SDS011;6591;51.446;5.404;2024-03-23T08:53:40;10.63;;;2.63;;
13048;SDS011;6591;51.446;5.404;2024-03-23T08:56:08;6.63;;;2.13;;
13048;SDS011;6591;51.446;5.404;2024-03-23T08:58:35;6.53;;;2.40;;
13048;SDS011;6591;51.446;5.404;2024-03-23T09:01:07;5.50;;;2.03;;
13048;SDS011;6591;51.446;5.404;2024-03-23T09:03:36;9.97;;;2.53;;
13048;SDS011;6591;51.446;5.404;2024-03-23T09:06:12;4.00;;;1.57;;
13048;SDS011;6591;51.446;5.404;2024-03-23T09:08:40;3.13;;;1.17;;
13048;SDS011;6591;51.446;5.404;2024-03-23T09:11:10;3.27;;;1.30;;
13048;SDS011;6591;51.446;5.404;2024-03-23T09:13:38;3.60;;;1.30;;
13048;SDS011;6591;51.446;5.404;2024-03-23T09:16:07;2.73;;;1.13;;
13048;SDS011;6591;51.446;5.404;2024-03-23T09:18:35;2.30;;;1.30;;
13048;SDS011;6591;51.446;5.404;2024-03-23T09:21:03;4.83;;;1.70;;
13048;SDS011;6591;51.446;5.404;2024-03-23T09:23:36;3.10;;;1.40;;
13048;SDS011;6591;51.446;5.404;2024-03-23T09:26:05;2.63;;;1.60;;
13048;SDS011;6591;51.446;5.404;2024-03-23T09:28:34;6.43;;;2.00;;
13048;SDS011;6591;51.446;5.404;2024-03-23T09:31:03;3.77;;;1.97;;
13048;SDS011;6591;51.446;5.404;2024-03-23T09:33:31;6.57;;;1.73;;
13048;SDS011;6591;51.446;5.404;2024-03-23T09:35:57;3.27;;;1.67;;
13048;SDS011;6591;51.446;5.404;2024-03-23T09:38:24;4.97;;;1.57;;
13048;SDS011;6591;51.446;5.404;2024-03-23T09:40:52;6.23;;;1.70;;
13048;SDS011;6591;51.446;5.404;2024-03-23T09:43:19;7.03;;;1.90;;
13048;SDS011;6591;51.446;5.404;2024-03-23T09:45:45;5.80;;;2.17;;
13048;SDS011;6591;51.446;5.404;2024-03-23T09:48:12;5.77;;;1.70;;
13048;SDS011;6591;51.446;5.404;2024-03-23T09:50:47;5.13;;;2.03;;
13048;SDS011;6591;51.446;5.404;2024-03-23T09:53:14;5.77;;;1.80;;
13048;SDS011;6591;51.446;5.404;2024-03-23T09:55:44;6.07;;;2.30;;
13048;SDS011;6591;51.446;5.404;2024-03-23T09:58:15;5.40;;;1.63;;
13048;SDS011;6591;51.446;5.404;2024-03-23T10:00:43;5.40;;;1.90;;
13048;SDS011;6591;51.446;5.404;2024-03-23T10:03:13;8.10;;;2.10;;
13048;SDS011;6591;51.446;5.404;2024-03-23T10:05:40;3.30;;;1.60;;
13048;SDS011;6591;51.446;5.404;2024-03-23T10:10:43;3.00;;;1.50;;
13048;SDS011;6591;51.446;5.404;2024-03-23T10:13:11;4.83;;;1.70;;
13048;SDS011;6591;51.446;5.404;2024-03-23T10:15:51;5.33;;;1.77;;
13048;SDS011;6591;51.446;5.404;2024-03-23T10:18:25;4.50;;;1.70;;
13048;SDS011;6591;51.446;5.404;2024-03-23T10:21:06;4.50;;;1.77;;
13048;SDS011;6591;51.446;5.404;2024-03-23T10:23:40;8.30;;;2.00;;
13048;SDS011;6591;51.446;5.404;2024-03-23T10:28:54;3.73;;;1.40;;
13048;SDS011;6591;51.446;5.404;2024-03-23T10:31:36;5.70;;;2.13;;
13048;SDS011;6591;51.446;5.404;2024-03-23T10:34:05;5.57;;;1.90;;
13048;SDS011;6591;51.446;5.404;2024-03-23T10:36:31;10.03;;;2.47;;
13048;SDS011;6591;51.446;5.404;2024-03-23T10:38:59;4.87;;;2.03;;
13048;SDS011;6591;51.446;5.404;2024-03-23T10:41:27;9.23;;;2.63;;
13048;SDS011;6591;51.446;5.404;2024-03-23T10:43:58;6.53;;;2.07;;
13048;SDS011;6591;51.446;5.404;2024-03-23T10:46:30;5.83;;;2.03;;
13048;SDS011;6591;51.446;5.404;2024-03-23T10:48:58;8.13;;;2.60;;
13048;SDS011;6591;51.446;5.404;2024-03-23T10:51:24;5.00;;;2.13;;
13048;SDS011;6591;51.446;5.404;2024-03-23T10:53:51;5.40;;;2.27;;
13048;SDS011;6591;51.446;5.404;2024-03-23T10:56:21;5.47;;;2.30;;
13048;SDS011;6591;51.446;5.404;2024-03-23T10:58:48;6.90;;;2.47;;
13048;SDS011;6591;51.446;5.404;2024-03-23T11:01:16;8.27;;;2.53;;
13048;SDS011;6591;51.446;5.404;2024-03-23T11:03:46;6.83;;;2.30;;
13048;SDS011;6591;51.446;5.404;2024-03-23T11:09:03;7.43;;;2.23;;
13048;SDS011;6591;51.446;5.404;2024-03-23T11:15:01;5.20;;;2.53;;
13048;SDS011;6591;51.446;5.404;2024-03-23T11:17:29;7.60;;;2.30;;
13048;SDS011;6591;51.446;5.404;2024-03-23T11:22:44;8.17;;;2.23;;
13048;SDS011;6591;51.446;5.404;2024-03-23T11:25:13;5.97;;;1.40;;
13048;SDS011;6591;51.446;5.404;2024-03-23T11:27:46;4.00;;;1.63;;
13048;SDS011;6591;51.446;5.404;2024-03-23T11:30:15;3.57;;;1.20;;
13048;SDS011;6591;51.446;5.404;2024-03-23T11:32:49;3.50;;;1.20;;
13048;SDS011;6591;51.446;5.404;2024-03-23T11:35:32;6.97;;;1.93;;
13048;SDS011;6591;51.446;5.404;2024-03-23T11:38:12;5.00;;;1.30;;
13048;SDS011;6591;51.446;5.404;2024-03-23T11:40:47;2.43;;;1.30;;
13048;SDS011;6591;51.446;5.404;2024-03-23T11:45:44;3.37;;;1.20;;
13048;SDS011;6591;51.446;5.404;2024-03-23T11:48:19;3.63;;;1.37;;
13048;SDS011;6591;51.446;5.404;2024-03-23T11:50:48;3.33;;;1.53;;
13048;SDS011;6591;51.446;5.404;2024-03-23T11:55:58;2.63;;;0.97;;
13048;SDS011;6591;51.446;5.404;2024-03-23T11:58:26;1.97;;;1.10;;
13048;SDS011;6591;51.446;5.404;2024-03-23T12:00:57;1.90;;;1.00;;
13048;SDS011;6591;51.446;5.404;2024-03-23T12:03:28;2.27;;;1.20;;
13048;SDS011;6591;51.446;5.404;2024-03-23T12:05:56;3.33;;;1.17;;
13048;SDS011;6591;51.446;5.404;2024-03-23T12:08:29;1.43;;;0.93;;
13048;SDS011;6591;51.446;5.404;2024-03-23T12:11:09;1.80;;;1.00;;
13048;SDS011;6591;51.446;5.404;2024-03-23T12:13:42;1.40;;;1.03;;
13048;SDS011;6591;51.446;5.404;2024-03-23T12:18:48;3.77;;;1.50;;
13048;SDS011;6591;51.446;5.404;2024-03-23T12:21:16;6.27;;;1.40;;
13048;SDS011;6591;51.446;5.404;2024-03-23T12:23:43;5.43;;;1.60;;
13048;SDS011;6591;51.446;5.404;2024-03-23T12:26:12;4.80;;;1.57;;
13048;SDS011;6591;51.446;5.404;2024-03-23T12:28:38;4.13;;;1.30;;
13048;SDS011;6591;51.446;5.404;2024-03-23T12:31:05;4.93;;;1.80;;
13048;SDS011;6591;51.446;5.404;2024-03-23T12:33:31;4.27;;;1.67;;
13048;SDS011;6591;51.446;5.404;2024-03-23T12:35:58;3.23;;;1.50;;
13048;SDS011;6591;51.446;5.404;2024-03-23T12:38:24;3.50;;;1.40;;
13048;SDS011;6591;51.446;5.404;2024-03-23T12:40:50;2.53;;;1.10;;
13048;SDS011;6591;51.446;5.404;2024-03-23T12:43:17;2.70;;;1.20;;
13048;SDS011;6591;51.446;5.404;2024-03-23T12:45:49;2.27;;;1.10;;
13048;SDS011;6591;51.446;5.404;2024-03-23T12:48:16;5.80;;;0.60;;
13048;SDS011;6591;51.446;5.404;2024-03-23T12:50:42;0.77;;;0.60;;
13048;SDS011;6591;51.446;5.404;2024-03-23T12:53:08;1.60;;;0.70;;
13048;SDS011;6591;51.446;5.404;2024-03-23T12:55:35;1.20;;;0.60;;
13048;SDS011;6591;51.446;5.404;2024-03-23T12:58:01;0.90;;;0.70;;
13048;SDS011;6591;51.446;5.404;2024-03-23T13:00:28;0.47;;;0.47;;
13048;SDS011;6591;51.446;5.404;2024-03-23T13:02:55;0.80;;;0.50;;
13048;SDS011;6591;51.446;5.404;2024-03-23T13:05:21;0.70;;;0.50;;
13048;SDS011;6591;51.446;5.404;2024-03-23T13:07:47;1.57;;;0.67;;
13048;SDS011;6591;51.446;5.404;2024-03-23T13:10:14;2.40;;;1.00;;
13048;SDS011;6591;51.446;5.404;2024-03-23T13:12:41;2.77;;;0.97;;
13048;SDS011;6591;51.446;5.404;2024-03-23T13:15:08;3.00;;;1.00;;
13048;SDS011;6591;51.446;5.404;2024-03-23T13:17:35;2.87;;;1.10;;
13048;SDS011;6591;51.446;5.404;2024-03-23T13:20:01;6.27;;;1.50;;
13048;SDS011;6591;51.446;5.404;2024-03-23T13:22:29;4.57;;;1.60;;
13048;SDS011;6591;51.446;5.404;2024-03-23T13:24:55;3.87;;;1.10;;
13048;SDS011;6591;51.446;5.404;2024-03-23T13:27:21;2.33;;;1.03;;
13048;SDS011;6591;51.446;5.404;2024-03-23T13:29:47;2.30;;;1.03;;
13048;SDS011;6591;51.446;5.404;2024-03-23T13:32:14;3.30;;;1.17;;
13048;SDS011;6591;51.446;5.404;2024-03-23T13:34:40;7.50;;;0.90;;
13048;SDS011;6591;51.446;5.404;2024-03-23T13:37:07;2.17;;;1.00;;
13048;SDS011;6591;51.446;5.404;2024-03-23T13:39:35;1.40;;;1.10;;
13048;SDS011;6591;51.446;5.404;2024-03-23T13:42:01;1.27;;;0.80;;
13048;SDS011;6591;51.446;5.404;2024-03-23T13:44:28;3.10;;;1.00;;
13048;SDS011;6591;51.446;5.404;2024-03-23T13:46:55;3.47;;;1.10;;
13048;SDS011;6591;51.446;5.404;2024-03-23T13:51:55;3.20;;;1.10;;
13048;SDS011;6591;51.446;5.404;2024-03-23T13:54:23;3.43;;;1.30;;
13048;SDS011;6591;51.446;5.404;2024-03-23T13:56:51;3.10;;;1.20;;
13048;SDS011;6591;51.446;5.404;2024-03-23T13:59:20;3.57;;;1.37;;
13048;SDS011;6591;51.446;5.404;2024-03-23T14:01:48;2.30;;;1.53;;
13048;SDS011;6591;51.446;5.404;2024-03-23T14:04:15;5.63;;;2.00;;
13048;SDS011;6591;51.446;5.404;2024-03-23T14:06:48;4.43;;;1.97;;
13048;SDS011;6591;51.446;5.404;2024-03-23T14:09:15;3.47;;;1.70;;
13048;SDS011;6591;51.446;5.404;2024-03-23T14:11:46;5.17;;;1.77;;
13048;SDS011;6591;51.446;5.404;2024-03-23T14:14:13;6.50;;;2.03;;
13048;SDS011;6591;51.446;5.404;2024-03-23T14:16:43;5.90;;;2.03;;
13048;SDS011;6591;51.446;5.404;2024-03-23T14:19:09;7.43;;;2.43;;
13048;SDS011;6591;51.446;5.404;2024-03-23T14:21:35;5.40;;;1.63;;
13048;SDS011;6591;51.446;5.404;2024-03-23T14:24:01;3.80;;;1.73;;
13048;SDS011;6591;51.446;5.404;2024-03-23T14:26:28;5.03;;;1.83;;
13048;SDS011;6591;51.446;5.404;2024-03-23T14:28:54;5.07;;;1.70;;
13048;SDS011;6591;51.446;5.404;2024-03-23T14:31:20;3.77;;;1.70;;
13048;SDS011;6591;51.446;5.404;2024-03-23T14:33:47;5.10;;;1.77;;
13048;SDS011;6591;51.446;5.404;2024-03-23T14:36:14;4.73;;;1.73;;
13048;SDS011;6591;51.446;5.404;2024-03-23T14:38:40;3.50;;;1.60;;
13048;SDS011;6591;51.446;5.404;2024-03-23T14:41:09;2.73;;;1.50;;
13048;SDS011;6591;51.446;5.404;2024-03-23T14:43:35;3.70;;;1.43;;
13048;SDS011;6591;51.446;5.404;2024-03-23T14:46:11;3.40;;;1.40;;
13048;SDS011;6591;51.446;5.404;2024-03-23T14:48:40;2.37;;;1.00;;
13048;SDS011;6591;51.446;5.404;2024-03-23T14:51:10;4.33;;;1.20;;
13048;SDS011;6591;51.446;5.404;2024-03-23T14:53:41;3.07;;;0.80;;
13048;SDS011;6591;51.446;5.404;2024-03-23T14:56:11;2.03;;;0.90;;
13048;SDS011;6591;51.446;5.404;2024-03-23T14:58:40;2.80;;;1.20;;
13048;SDS011;6591;51.446;5.404;2024-03-23T15:01:08;4.80;;;1.20;;
13048;SDS011;6591;51.446;5.404;2024-03-23T15:03:38;2.77;;;1.30;;
13048;SDS011;6591;51.446;5.404;2024-03-23T15:06:05;2.43;;;1.20;;
13048;SDS011;6591;51.446;5.404;2024-03-23T15:08:34;2.83;;;1.23;;
13048;SDS011;6591;51.446;5.404;2024-03-23T15:11:02;3.00;;;1.07;;
13048;SDS011;6591;51.446;5.404;2024-03-23T15:13:34;2.43;;;1.20;;
13048;SDS011;6591;51.446;5.404;2024-03-23T15:16:01;3.33;;;1.20;;
13048;SDS011;6591;51.446;5.404;2024-03-23T15:18:29;2.93;;;1.30;;
13048;SDS011;6591;51.446;5.404;2024-03-23T15:20:57;3.07;;;1.50;;
13048;SDS011;6591;51.446;5.404;2024-03-23T15:23:29;3.57;;;1.30;;
13048;SDS011;6591;51.446;5.404;2024-03-23T15:28:26;4.37;;;1.30;;
13048;SDS011;6591;51.446;5.404;2024-03-23T15:31:05;4.70;;;1.80;;
13048;SDS011;6591;51.446;5.404;2024-03-23T15:33:32;2.90;;;1.27;;
13048;SDS011;6591;51.446;5.404;2024-03-23T15:36:05;3.67;;;1.33;;
13048;SDS011;6591;51.446;5.404;2024-03-23T15:38:31;4.00;;;1.30;;
13048;SDS011;6591;51.446;5.404;2024-03-23T15:40:58;3.77;;;1.10;;
13048;SDS011;6591;51.446;5.404;2024-03-23T15:43:25;1.83;;;0.97;;
13048;SDS011;6591;51.446;5.404;2024-03-23T15:45:56;1.40;;;0.77;;
13048;SDS011;6591;51.446;5.404;2024-03-23T15:48:29;1.57;;;0.97;;
13048;SDS011;6591;51.446;5.404;2024-03-23T15:51:01;1.13;;;0.60;;
13048;SDS011;6591;51.446;5.404;2024-03-23T15:53:30;1.67;;;0.90;;
13048;SDS011;6591;51.446;5.404;2024-03-23T15:55:58;2.43;;;0.90;;
13048;SDS011;6591;51.446;5.404;2024-03-23T15:58:25;1.80;;;1.10;;
13048;SDS011;6591;51.446;5.404;2024-03-23T16:01:00;0.80;;;0.73;;
13048;SDS011;6591;51.446;5.404;2024-03-23T16:03:32;1.90;;;0.80;;
13048;SDS011;6591;51.446;5.404;2024-03-23T16:05:59;1.00;;;0.70;;
13048;SDS011;6591;51.446;5.404;2024-03-23T16:08:30;2.53;;;0.90;;
13048;SDS011;6591;51.446;5.404;2024-03-23T16:11:00;1.13;;;0.70;;
13048;SDS011;6591;51.446;5.404;2024-03-23T16:13:32;1.47;;;0.90;;
13048;SDS011;6591;51.446;5.404;2024-03-23T16:16:00;2.67;;;1.17;;
13048;SDS011;6591;51.446;5.404;2024-03-23T16:18:36;1.57;;;0.93;;
13048;SDS011;6591;51.446;5.404;2024-03-23T16:21:10;2.10;;;0.80;;
13048;SDS011;6591;51.446;5.404;2024-03-23T16:23:37;1.87;;;0.97;;
13048;SDS011;6591;51.446;5.404;2024-03-23T16:26:03;1.83;;;1.00;;